KDTL/DTL METAR and TAF weather

Enter ICAO airport designator
Station Type Date Time Source
KDTL METAR 2019/04/25 01:56 UTC NOAA

KDTL 250156Z AUTO 31007KT 10SM CLR 15/05 A2974 RMK AO2


Station Type Date Time Source
KDTL Decoded METAR 2019/04/25 01:56 UTC NOAA

Detroit Lakes, Detroit Lakes Airport-Wething Field, MN, United States (KDTL) 46-50N 095-53W
Apr 24, 2019 - 09:56 PM EDT / 2019.04.25 0156 UTC
Wind: from the NW (310 degrees) at 8 MPH (7 KT):0
Visibility: 10 mile(s):0
Sky conditions: clear
Temperature: 59 F (15 C)
Dew Point: 41 F (5 C)
Relative Humidity: 51%
Pressure (altimeter): 29.74 in. Hg (1007 hPa)
ob: KDTL 250156Z AUTO 31007KT 10SM CLR 15/05 A2974 RMK AO2
cycle: 2

Station Type Date Time Source
KDTL TAF UTC NOAA

Error!

Example: see airport list